Calistoga, CA (94515)

7:58 AM PDT on October 25, 2014 (GMT -0700)
Calistoga | Change Station
CLOSE
Current Station
Personal Weather Station
Location: Calistoga, CA
Elevation: 367 ft
Nearby Weather Stations

Elev 367 ft 38.59 °N, 122.58 °W | Updated 59 seconds ago

Overcast
Overcast
59.2 °F
Feels Like 59.2 °F
N
4.0
Wind Variable Wind from WSW
Gusts 0.0 mph

Today
High -- | Low -- °F
--% Chance of Precip.
Yesterday
High -- | Low -- °F
Precip. -- in
7:29 AM 6:18 PM
Waxing Crescent, 3% visible
Pressure 29.90 in
Visibility 10.0 miles
Clouds Mostly Cloudy 1500 ft
Overcast 2400 ft
Dew Point 56 °F
Humidity 89%
Rainfall 0.33 in
Snow Depth Not available.
UV 0 out of 12
Pollen 2.40 out of 12
Air Quality Not available.
Flu Activity Sporadic
METAR KSTS 251453Z 14003KT 10SM BKN015 OVC024 15/14 A2992 RMK AO2 SLP125 60001 T01500139 53010

More Conditions Fewer Conditions

Pressure 29.90 in
Visibility 10.0 miles
Clouds Mostly Cloudy 1500 ft
Overcast 2400 ft
Dew Point 56 °F
Humidity 89%
Rainfall 0.33 in
Snow Depth Not available.
UV 0 out of 12
Pollen 2.40 out of 12
Air Quality Not available.
Flu Activity Sporadic
METAR KSTS 251453Z 14003KT 10SM BKN015 OVC024 15/14 A2992 RMK AO2 SLP125 60001 T01500139 53010

More Conditions Fewer Conditions

10-Day Weather Forecast

Almanac

Astronomy

Oct. 25, 2014 Rise Set
Actual Time 7:29 AM PDT 6:18 PM PDT
Civil Twilight 7:02 AM PDT 6:45 PM PDT
Nautical Twilight 6:31 AM PDT 7:16 PM PDT
Astronomical Twilight 6:00 AM PDT 7:47 PM PDT
Moon 9:12 AM PDT 7:46 PM PDT
Length of Visible Light 11h 43m
Length of Day
10h 48m
Tomorrow will be 2m 17s shorter.
Waxing Crescent, 3% of the Moon is Illuminated
Today
Waxing Crescent
Oct 30
First Quarter
Nov 6
Full
Nov 14
Last Quarter
Nov 22
New

Today's Extremes

State Highs State Lows

Community

WunderPhotos

Upload Photos

1,764,861 photos uploaded!

Nearby

Air Quality

  Air Quality AQ Index Pollutant
Saturday Good
OZONE
Sunday Moderate
PM2.5
Monday Moderate
PM2.5
Tuesday Moderate
PM2.5
Wednesday Moderate
PM2.5

Snow Depth

Station Depth Elevation
CSS Lab 0 in 6900 ft
Squaw Valley 0 in 8200 ft
Independence Lake 0 in 8450 ft
Rubicon #2 1 in 7500 ft
Echo Peak 1 in 7800 ft

Earthquake Activity

City Distance Mag. Time & Date
Antioch, California 54 miles 2.7 6:42 AM PDT
2014-10-25
Deer Park, California 7 miles 2.8 6:40 AM PDT
2014-10-25
Minimum magnitude displayed is 2.5.

Coastal Water Temperatures

Place Temperature
No Stations Reporting

Nearby Weather Stations